Time;durP1;ratioP1;P1;durP2;ratioP2;P2;SDS_P1;SDS_P2;PMS_P1;PMS_P2;Temp;Humidity;BMP_temperature;BMP_pressure;BME280_temperature;BME280_humidity;BME280_pressure;Samples;Min_cycle;Max_cycle;Signal;HPM_P1;HPM_P2
2022/10/17 00:02:21;;;;;;;42.00;26.73;;;8.20;99.90;;;;;;5114270;28;20046;-71
2022/10/17 00:04:47;;;;;;;50.47;30.58;;;8.20;99.90;;;;;;5114208;28;20058;-74
2022/10/17 00:07:12;;;;;;;48.90;29.48;;;8.20;99.90;;;;;;5114267;28;20016;-74
2022/10/17 00:09:42;;;;;;;51.25;32.35;;;8.10;99.90;;;;;;5113871;28;20488;-73
2022/10/17 00:12:07;;;;;;;50.45;32.55;;;8.10;99.90;;;;;;5114178;28;20015;-71
2022/10/17 00:14:33;;;;;;;61.20;40.35;;;8.00;99.90;;;;;;5113980;28;20393;-70
2022/10/17 00:16:59;;;;;;;55.42;36.50;;;8.00;99.90;;;;;;5114124;28;20053;-74
2022/10/17 00:19:24;;;;;;;45.08;28.02;;;8.00;99.90;;;;;;5114024;28;20019;-71
2022/10/17 00:21:50;;;;;;;42.65;26.27;;;7.90;99.90;;;;;;5101257;28;20028;-71
2022/10/17 00:24:16;;;;;;;40.47;25.17;;;8.00;99.90;;;;;;5092271;28;20049;-73
2022/10/17 00:26:41;;;;;;;43.20;25.60;;;8.00;99.90;;;;;;5093605;28;20028;-74
2022/10/17 00:29:07;;;;;;;44.95;25.80;;;8.00;99.90;;;;;;5105925;28;20459;-73
2022/10/17 00:31:32;;;;;;;41.35;26.17;;;8.00;99.90;;;;;;5112618;28;20503;-73
2022/10/17 00:33:58;;;;;;;35.30;25.00;;;8.00;99.90;;;;;;5098658;28;20022;-73
2022/10/17 00:36:27;;;;;;;43.97;25.95;;;8.00;99.90;;;;;;5093583;28;20083;-70
2022/10/17 00:38:55;;;;;;;43.20;26.63;;;8.00;99.90;;;;;;5093403;28;20032;-71
2022/10/17 00:41:25;;;;;;;45.63;28.95;;;7.90;99.90;;;;;;5093254;28;20579;-74
2022/10/17 00:44:03;;;;;;;57.70;37.90;;;7.90;99.90;;;;;;5093436;28;20419;-71
2022/10/17 00:46:34;;;;;;;55.90;36.92;;;7.90;99.90;;;;;;5093467;28;20028;-71
2022/10/17 00:49:08;;;;;;;56.75;39.08;;;7.90;99.90;;;;;;5093349;28;20056;-71
2022/10/17 00:51:44;;;;;;;65.25;41.15;;;7.80;99.90;;;;;;5093493;28;20435;-71
2022/10/17 00:54:12;;;;;;;56.60;34.90;;;7.80;99.90;;;;;;5092013;28;20024;-71
2022/10/17 00:56:39;;;;;;;51.58;33.10;;;7.80;99.90;;;;;;5093343;28;20024;-71
2022/10/17 00:59:06;;;;;;;49.13;29.95;;;7.80;99.90;;;;;;5094944;28;20112;-71
2022/10/17 01:01:32;;;;;;;43.38;27.67;;;7.80;99.90;;;;;;5097262;28;20091;-74
2022/10/17 01:03:58;;;;;;;47.42;29.30;;;7.80;99.90;;;;;;5096895;28;20077;-72
2022/10/17 01:06:23;;;;;;;50.90;32.50;;;7.80;99.90;;;;;;5097211;28;20031;-71
2022/10/17 01:08:49;;;;;;;50.63;31.85;;;7.80;99.90;;;;;;5097230;28;20023;-74
2022/10/17 01:11:38;;;;;;;50.03;32.03;;;7.80;99.90;;;;;;5097017;28;20036;-71
2022/10/17 01:14:31;;;;;;;49.67;32.75;;;7.80;99.90;;;;;;5095762;28;20419;-74
2022/10/17 01:17:02;;;;;;;;;;;7.80;99.90;;;;;;5077289;28;20016;-71
2022/10/17 01:19:37;;;;;;;52.97;33.03;;;7.70;99.90;;;;;;5075295;28;20292;-70
2022/10/17 01:22:13;;;;;;;57.50;35.42;;;7.70;99.90;;;;;;5075237;28;20035;-74
2022/10/17 01:24:57;;;;;;;66.07;38.33;;;7.70;99.90;;;;;;5076342;28;20051;-73
2022/10/17 01:28:07;;;;;;;53.30;34.88;;;7.70;99.90;;;;;;5076579;28;20095;-74
2022/10/17 01:30:57;;;;;;;56.13;34.38;;;7.60;99.90;;;;;;5075758;28;20502;-70
2022/10/17 01:33:45;;;;;;;66.25;39.72;;;7.60;99.90;;;;;;5076546;28;20032;-70
2022/10/17 01:36:26;;;;;;;61.30;39.45;;;7.50;99.90;;;;;;5075029;28;20048;-74
2022/10/17 01:38:57;;;;;;;51.70;35.00;;;7.50;99.90;;;;;;5084371;28;20120;-73
2022/10/17 01:41:43;;;;;;;58.65;37.78;;;7.50;99.90;;;;;;5103930;28;20054;-73
2022/10/17 01:44:18;;;;;;;64.28;39.60;;;7.50;99.90;;;;;;5096500;28;20031;-74
2022/10/17 01:46:49;;;;;;;56.88;35.38;;;7.40;99.90;;;;;;5095252;28;20069;-74
2022/10/17 01:49:19;;;;;;;65.18;40.95;;;7.40;99.90;;;;;;5095118;28;20031;-71
2022/10/17 01:52:05;;;;;;;67.20;44.42;;;7.40;99.90;;;;;;5107505;28;20015;-74
2022/10/17 01:54:44;;;;;;;66.80;42.08;;;7.40;99.90;;;;;;5116611;28;20361;-74
2022/10/17 01:57:25;;;;;;;66.65;41.80;;;7.40;99.90;;;;;;5115477;28;20024;-74
2022/10/17 01:59:51;;;;;;;72.88;44.47;;;7.40;99.90;;;;;;5116517;28;20031;-71
2022/10/17 02:02:19;;;;;;;68.97;43.30;;;7.40;99.90;;;;;;5116590;28;20030;-74
2022/10/17 02:04:48;;;;;;;66.97;43.53;;;7.40;99.90;;;;;;5116470;28;20027;-70
2022/10/17 02:07:14;;;;;;;62.40;38.70;;;7.30;99.90;;;;;;5116453;28;20057;-73
2022/10/17 02:09:39;;;;;;;66.35;40.50;;;7.30;99.90;;;;;;5115683;28;20111;-70
2022/10/17 02:12:20;;;;;;;62.00;37.90;;;7.30;99.90;;;;;;5116396;28;20027;-73
2022/10/17 02:15:16;;;;;;;60.17;35.25;;;7.30;99.90;;;;;;5113863;28;20027;-70
2022/10/17 02:18:08;;;;;;;54.83;32.85;;;7.40;99.90;;;;;;5095905;28;20427;-70
2022/10/17 02:20:47;;;;;;;56.30;34.92;;;7.40;99.90;;;;;;5095801;28;20028;-71
2022/10/17 02:23:26;;;;;;;59.08;36.47;;;7.40;99.90;;;;;;5095970;28;20020;-73
2022/10/17 02:26:11;;;;;;;56.78;32.88;;;7.40;99.90;;;;;;5095731;28;20491;-70
2022/10/17 02:28:37;;;;;;;49.45;29.92;;;7.40;99.90;;;;;;5105875;28;20019;-71
2022/10/17 02:31:14;;;;;;;45.70;27.58;;;7.30;99.90;;;;;;5115929;27;20039;-73
2022/10/17 02:33:55;;;;;;;44.30;26.65;;;7.30;99.90;;;;;;5106464;28;20382;-71
2022/10/17 02:36:24;;;;;;;43.13;25.35;;;7.30;99.90;;;;;;5095623;28;20509;-74
2022/10/17 02:38:53;;;;;;;44.22;28.60;;;7.30;99.90;;;;;;5094020;28;20074;-71
2022/10/17 02:41:22;;;;;;;43.75;26.20;;;7.30;99.90;;;;;;5095219;28;20016;-73
2022/10/17 02:43:49;;;;;;;39.38;24.20;;;7.20;99.90;;;;;;5095445;28;20069;-74
2022/10/17 02:46:22;;;;;;;36.42;22.70;;;7.20;99.90;;;;;;5095251;28;20077;-73
2022/10/17 02:48:55;;;;;;;29.40;20.05;;;7.30;99.90;;;;;;5094133;28;20111;-71
2022/10/17 02:51:41;;;;;;;31.02;20.65;;;7.30;99.90;;;;;;5095480;28;20028;-73
2022/10/17 02:54:20;;;;;;;30.65;19.58;;;7.20;99.90;;;;;;5093949;28;20439;-73
2022/10/17 02:57:10;;;;;;;29.95;20.65;;;7.20;99.90;;;;;;5095070;28;20020;-71
2022/10/17 02:59:37;;;;;;;30.85;19.00;;;7.20;99.90;;;;;;5074851;28;20390;-70
2022/10/17 03:02:04;;;;;;;35.25;20.50;;;7.20;99.90;;;;;;5074724;28;20086;-73
2022/10/17 03:04:30;;;;;;;29.73;18.48;;;7.20;99.90;;;;;;5074682;28;20031;-73
2022/10/17 03:06:56;;;;;;;34.40;20.75;;;7.20;99.90;;;;;;5073294;28;20034;-71
2022/10/17 03:09:21;;;;;;;33.20;19.45;;;7.20;99.90;;;;;;5081144;28;20034;-71
2022/10/17 03:11:47;;;;;;;27.98;19.13;;;7.10;99.90;;;;;;5115085;28;20056;-71
2022/10/17 03:14:12;;;;;;;29.67;20.15;;;7.20;99.90;;;;;;5115063;28;20024;-73
2022/10/17 03:16:38;;;;;;;34.92;19.70;;;7.10;99.90;;;;;;5114923;28;20039;-73
2022/10/17 03:19:04;;;;;;;31.92;22.17;;;7.00;99.90;;;;;;5115068;28;20019;-74
2022/10/17 03:21:29;;;;;;;33.47;20.88;;;7.00;99.90;;;;;;5114122;28;20036;-70
2022/10/17 03:23:55;;;;;;;31.52;21.23;;;7.00;99.90;;;;;;5114973;28;20065;-74
2022/10/17 03:26:20;;;;;;;32.95;21.98;;;7.00;99.90;;;;;;5114769;28;20081;-74
2022/10/17 03:28:46;;;;;;;29.85;18.67;;;7.00;99.90;;;;;;5114391;28;20476;-71
2022/10/17 03:31:14;;;;;;;29.67;20.55;;;6.90;99.90;;;;;;5114654;28;20124;-74
2022/10/17 03:33:40;;;;;;;30.05;18.77;;;6.90;99.90;;;;;;5114761;28;20052;-73
2022/10/17 03:36:11;;;;;;;39.53;21.90;;;6.90;99.90;;;;;;5114568;28;20082;-74
2022/10/17 03:38:36;;;;;;;36.05;21.95;;;6.90;99.90;;;;;;5113379;28;20015;-71
2022/10/17 03:41:03;;;;;;;32.60;21.85;;;6.90;99.90;;;;;;5101013;28;20020;-73
2022/10/17 03:43:29;;;;;;;29.33;19.52;;;6.90;99.90;;;;;;5093069;28;20028;-70
2022/10/17 03:45:57;;;;;;;30.45;20.08;;;6.90;99.90;;;;;;5094076;28;20024;-70
2022/10/17 03:48:23;;;;;;;33.53;19.40;;;6.90;99.90;;;;;;5092845;28;20027;-70
2022/10/17 03:50:49;;;;;;;31.85;19.63;;;6.90;99.90;;;;;;5092703;28;20036;-74
2022/10/17 03:53:14;;;;;;;29.67;18.83;;;6.80;99.90;;;;;;5094100;28;20023;-70
2022/10/17 03:55:40;;;;;;;35.90;20.73;;;6.80;99.90;;;;;;5094071;28;20020;-70
2022/10/17 03:58:05;;;;;;;36.67;19.02;;;6.80;99.90;;;;;;5092706;28;20026;-73
2022/10/17 04:00:31;;;;;;;31.55;19.33;;;6.80;99.90;;;;;;5093909;28;20063;-73
2022/10/17 04:02:57;;;;;;;30.42;18.55;;;6.70;99.90;;;;;;5093901;28;20031;-73
2022/10/17 04:05:23;;;;;;;33.63;20.10;;;6.70;99.90;;;;;;5093749;28;20032;-73
2022/10/17 04:07:48;;;;;;;32.50;19.30;;;6.70;99.90;;;;;;5093880;28;20023;-74
2022/10/17 04:10:14;;;;;;;49.05;28.27;;;6.70;99.90;;;;;;5093606;28;20028;-73
2022/10/17 04:12:39;;;;;;;45.53;27.95;;;6.70;99.90;;;;;;5093785;28;20068;-73
2022/10/17 04:15:06;;;;;;;41.75;25.80;;;6.60;99.90;;;;;;5093815;28;20017;-73
2022/10/17 04:17:31;;;;;;;46.00;26.38;;;6.60;99.90;;;;;;5093627;28;20493;-70
2022/10/17 04:19:57;;;;;;;41.08;26.17;;;6.70;99.90;;;;;;5093702;28;20016;-71
2022/10/17 04:22:22;;;;;;;44.60;25.65;;;6.70;99.90;;;;;;5093626;28;20465;-71
2022/10/17 04:24:48;;;;;;;40.53;23.38;;;6.70;99.90;;;;;;5093693;28;20385;-70
2022/10/17 04:27:14;;;;;;;34.53;20.92;;;6.70;99.90;;;;;;5092263;28;20384;-71
2022/10/17 04:29:39;;;;;;;32.90;20.38;;;6.60;99.90;;;;;;5095590;28;20068;-70
2022/10/17 04:32:05;;;;;;;29.00;19.17;;;6.70;99.90;;;;;;5096002;28;20107;-73
2022/10/17 04:34:30;;;;;;;34.35;19.55;;;6.70;99.90;;;;;;5098764;28;20365;-70
2022/10/17 04:36:56;;;;;;;34.17;19.80;;;6.70;99.90;;;;;;5100325;28;20028;-73
2022/10/17 04:39:21;;;;;;;35.88;20.27;;;6.70;99.90;;;;;;5100300;28;20032;-73
2022/10/17 04:41:47;;;;;;;29.63;18.48;;;6.70;99.90;;;;;;5100073;28;20020;-73
2022/10/17 04:44:13;;;;;;;31.77;19.27;;;6.70;99.90;;;;;;5100287;28;20041;-73
2022/10/17 04:46:38;;;;;;;33.42;19.20;;;6.60;99.90;;;;;;5098904;28;20028;-73
2022/10/17 04:49:04;;;;;;;30.90;18.92;;;6.60;99.90;;;;;;5100171;28;20077;-73
2022/10/17 04:51:29;;;;;;;39.10;18.67;;;6.60;99.90;;;;;;5100088;28;20040;-70
2022/10/17 04:53:55;;;;;;;33.40;19.30;;;6.60;99.90;;;;;;5100106;28;20065;-73
2022/10/17 04:56:23;;;;;;;34.53;19.90;;;6.60;99.90;;;;;;5100091;28;20031;-73
2022/10/17 04:58:49;;;;;;;33.35;19.35;;;6.60;99.90;;;;;;5098829;28;20085;-71
2022/10/17 05:01:17;;;;;;;32.35;19.40;;;6.50;99.90;;;;;;5098753;28;20016;-70
2022/10/17 05:03:43;;;;;;;33.55;18.85;;;6.50;99.90;;;;;;5099975;28;20380;-73
2022/10/17 05:06:14;;;;;;;33.08;18.75;;;6.50;99.90;;;;;;5099854;28;20031;-70
2022/10/17 05:08:40;;;;;;;29.25;18.88;;;6.50;99.90;;;;;;5098673;28;20046;-71
2022/10/17 05:11:21;;;;;;;31.52;18.45;;;6.40;99.90;;;;;;5098576;28;20464;-73
2022/10/17 05:13:52;;;;;;;32.92;19.70;;;6.40;99.90;;;;;;5099965;28;20520;-73
2022/10/17 05:16:18;;;;;;;36.08;22.45;;;6.40;99.90;;;;;;5098504;28;20024;-71
2022/10/17 05:18:47;;;;;;;31.83;21.02;;;6.40;99.90;;;;;;5099842;28;20017;-73
2022/10/17 05:21:13;;;;;;;37.15;20.98;;;6.40;99.90;;;;;;5099889;28;20381;-70
2022/10/17 05:23:38;;;;;;;37.95;21.98;;;6.50;99.90;;;;;;5098607;28;20016;-73
2022/10/17 05:26:04;;;;;;;35.97;20.73;;;6.50;99.90;;;;;;5099751;28;20477;-70
2022/10/17 05:28:29;;;;;;;36.60;20.67;;;6.50;99.90;;;;;;5106451;28;20031;-73
2022/10/17 05:30:55;;;;;;;37.30;21.83;;;6.50;99.90;;;;;;5099683;28;20032;-70
2022/10/17 05:33:22;;;;;;;34.50;20.40;;;6.60;99.90;;;;;;5099655;28;20397;-70
2022/10/17 05:35:47;;;;;;;29.67;19.13;;;6.60;99.90;;;;;;5099584;28;20108;-73
2022/10/17 05:38:13;;;;;;;32.65;19.60;;;6.60;99.90;;;;;;5099659;28;20463;-71
2022/10/17 05:40:38;;;;;;;30.45;18.63;;;6.60;99.90;;;;;;5098220;28;20028;-72
2022/10/17 05:43:04;;;;;;;34.30;19.30;;;6.70;99.90;;;;;;5097459;28;20377;-71
2022/10/17 05:45:30;;;;;;;32.47;18.52;;;6.80;99.90;;;;;;5096163;28;20024;-70
2022/10/17 05:47:56;;;;;;;37.22;19.75;;;6.80;99.90;;;;;;5111206;28;20024;-70
2022/10/17 05:50:23;;;;;;;40.33;22.67;;;6.80;99.90;;;;;;5116495;28;20040;-73
2022/10/17 05:52:52;;;;;;;38.55;21.15;;;6.80;99.90;;;;;;5115017;28;20022;-73
2022/10/17 05:55:18;;;;;;;35.20;21.13;;;6.80;99.90;;;;;;5116687;28;20019;-72
2022/10/17 05:57:44;;;;;;;39.10;20.83;;;6.90;99.90;;;;;;5115401;28;20015;-70
2022/10/17 06:00:10;;;;;;;38.20;19.95;;;6.90;99.90;;;;;;5116551;28;20027;-70
2022/10/17 06:02:36;;;;;;;36.22;20.95;;;7.00;99.90;;;;;;5116597;28;20028;-70
2022/10/17 06:05:01;;;;;;;34.15;21.55;;;7.10;99.90;;;;;;5115106;28;20084;-73
2022/10/17 06:07:27;;;;;;;35.25;19.25;;;7.10;99.90;;;;;;5116605;28;20020;-73
2022/10/17 06:09:52;;;;;;;34.05;20.83;;;7.20;99.90;;;;;;5114916;28;20039;-71
2022/10/17 06:12:18;;;;;;;32.22;21.13;;;7.30;99.90;;;;;;5097006;28;20024;-71
2022/10/17 06:14:44;;;;;;;33.47;20.92;;;7.40;99.90;;;;;;5095785;28;20381;-73
2022/10/17 06:17:09;;;;;;;33.78;19.58;;;7.50;99.90;;;;;;5095935;28;20107;-73
2022/10/17 06:19:35;;;;;;;36.38;22.65;;;7.70;99.90;;;;;;5095787;28;20039;-70
2022/10/17 06:22:01;;;;;;;39.00;21.85;;;7.90;99.90;;;;;;5094235;28;20106;-73
2022/10/17 06:24:26;;;;;;;33.00;19.90;;;8.10;99.90;;;;;;5095298;28;20051;-76
2022/10/17 06:26:52;;;;;;;34.53;19.98;;;8.30;99.90;;;;;;5094128;28;20028;-73
2022/10/17 06:29:18;;;;;;;34.20;18.88;;;8.40;99.90;;;;;;5112291;28;20023;-74
2022/10/17 06:31:43;;;;;;;43.63;28.02;;;8.60;99.90;;;;;;5114327;28;20028;-74
2022/10/17 06:34:09;;;;;;;57.67;35.50;;;8.80;99.90;;;;;;5115593;28;20081;-71
2022/10/17 06:36:35;;;;;;;67.65;39.60;;;8.90;99.90;;;;;;5114145;28;20054;-70
2022/10/17 06:39:01;;;;;;;49.10;30.45;;;9.10;99.90;;;;;;5115313;28;20019;-70
2022/10/17 06:41:26;;;;;;;52.20;31.17;;;9.30;99.90;;;;;;5100598;28;20016;-70
2022/10/17 06:43:52;;;;;;;43.90;27.25;;;9.40;99.90;;;;;;5095298;28;20024;-70
2022/10/17 06:46:18;;;;;;;51.42;31.60;;;9.60;99.90;;;;;;5095698;28;20024;-73
2022/10/17 06:48:44;;;;;;;46.90;30.95;;;9.70;99.90;;;;;;5114711;28;20024;-70
2022/10/17 06:51:10;;;;;;;50.20;29.52;;;9.90;99.90;;;;;;5115403;28;20035;-73
2022/10/17 06:53:38;;;;;;;41.78;28.40;;;10.10;99.90;;;;;;5115643;28;20023;-71
2022/10/17 06:56:05;;;;;;;47.17;30.48;;;10.30;99.90;;;;;;5112885;28;20032;-70
2022/10/17 06:58:33;;;;;;;50.70;28.17;;;10.50;99.90;;;;;;5115498;28;20376;-73
2022/10/17 07:01:04;;;;;;;42.67;29.02;;;10.70;99.90;;;;;;5115354;28;20027;-73
2022/10/17 07:03:30;;;;;;;46.15;29.17;;;10.90;99.90;;;;;;5114151;28;20481;-74
2022/10/17 07:05:56;;;;;;;40.67;26.55;;;11.20;99.90;;;;;;5115342;28;20061;-73
2022/10/17 07:08:22;;;;;;;34.63;23.73;;;11.40;99.90;;;;;;5115316;28;20030;-73
2022/10/17 07:10:48;;;;;;;36.55;22.88;;;11.60;99.90;;;;;;5115051;28;20032;-73
2022/10/17 07:13:14;;;;;;;33.08;21.42;;;11.80;99.90;;;;;;5115250;28;20512;-70
2022/10/17 07:15:40;;;;;;;36.38;24.75;;;12.00;99.90;;;;;;5115040;28;20058;-69
2022/10/17 07:18:05;;;;;;;42.42;25.90;;;12.20;99.90;;;;;;5102147;28;20043;-73
2022/10/17 07:20:31;;;;;;;30.55;20.70;;;12.40;99.90;;;;;;5094612;28;20039;-73
2022/10/17 07:22:57;;;;;;;30.25;21.52;;;12.60;99.90;;;;;;5094595;28;20021;-73
2022/10/17 07:25:22;;;;;;;31.38;20.98;;;12.70;99.90;;;;;;5094506;28;20021;-73
2022/10/17 07:27:49;;;;;;;31.60;20.15;;;12.90;99.90;;;;;;5099494;28;20023;-70
2022/10/17 07:30:15;;;;;;;24.08;16.80;;;13.10;99.90;;;;;;5114675;28;20118;-70
2022/10/17 07:32:42;;;;;;;24.67;16.70;;;13.40;99.90;;;;;;5114949;28;20032;-70
2022/10/17 07:35:08;;;;;;;22.90;16.52;;;13.50;99.90;;;;;;5111555;28;20552;-70
2022/10/17 07:37:34;;;;;;;20.13;14.73;;;13.80;99.90;;;;;;5094340;28;20054;-70
2022/10/17 07:39:59;;;;;;;21.38;15.10;;;14.00;99.90;;;;;;5094000;28;20461;-70
2022/10/17 07:42:27;;;;;;;21.48;13.75;;;14.20;99.90;;;;;;5094166;28;20027;-70
2022/10/17 07:44:53;;;;;;;16.30;13.15;;;14.40;99.90;;;;;;5094190;28;20027;-72
2022/10/17 07:47:18;;;;;;;18.15;12.85;;;14.60;99.90;;;;;;5092973;28;20016;-73
2022/10/17 07:49:44;;;;;;;19.27;13.20;;;14.70;99.90;;;;;;5092702;28;20081;-73
2022/10/17 07:52:10;;;;;;;18.67;12.93;;;14.80;99.90;;;;;;5094095;28;20069;-71
2022/10/17 07:54:36;;;;;;;20.75;12.10;;;15.00;99.90;;;;;;5094101;28;20144;-69
2022/10/17 07:57:02;;;;;;;18.52;12.40;;;15.10;99.90;;;;;;5094002;28;20024;-70
2022/10/17 07:59:28;;;;;;;18.98;12.02;;;15.30;99.90;;;;;;5093950;28;20020;-69
2022/10/17 08:01:56;;;;;;;17.60;12.27;;;15.40;99.90;;;;;;5093916;28;20430;-73
2022/10/17 08:04:22;;;;;;;18.17;12.85;;;15.50;99.90;;;;;;5092074;28;20414;-73
2022/10/17 08:06:48;;;;;;;17.92;11.50;;;15.60;99.90;;;;;;5091893;28;20381;-73
2022/10/17 08:09:14;;;;;;;18.77;11.85;;;15.70;99.90;;;;;;5092597;28;20024;-73
2022/10/17 08:11:39;;;;;;;18.00;11.27;;;15.80;99.90;;;;;;5093369;28;20478;-73
2022/10/17 08:14:05;;;;;;;19.23;13.07;;;15.90;99.90;;;;;;5092554;28;20026;-71
2022/10/17 08:16:31;;;;;;;15.85;10.80;;;16.00;99.90;;;;;;5093630;28;20032;-74
2022/10/17 08:18:56;;;;;;;18.60;12.40;;;16.00;99.90;;;;;;5093786;28;20020;-73
2022/10/17 08:21:22;;;;;;;17.17;11.77;;;16.10;99.90;;;;;;5093580;28;20032;-69
2022/10/17 08:23:47;;;;;;;21.70;12.43;;;16.20;99.90;;;;;;5093733;28;20095;-73
2022/10/17 08:26:16;;;;;;;18.05;12.07;;;16.30;99.90;;;;;;5092259;28;20063;-73
2022/10/17 08:28:42;;;;;;;20.38;10.82;;;16.40;99.90;;;;;;5106404;28;20087;-73
2022/10/17 08:31:10;;;;;;;15.43;10.63;;;16.50;99.90;;;;;;5113816;28;20031;-73
2022/10/17 08:33:36;;;;;;;18.38;11.15;;;16.50;99.90;;;;;;5114008;28;20027;-73
2022/10/17 08:36:03;;;;;;;13.52;10.98;;;16.60;99.90;;;;;;5113868;28;20074;-73
2022/10/17 08:38:30;;;;;;;20.00;10.18;;;16.70;99.90;;;;;;5113957;28;20099;-70
2022/10/17 08:41:17;;;;;;;15.27;11.05;;;16.80;99.90;;;;;;5100963;28;20024;-69
2022/10/17 08:43:54;;;;;;;17.27;9.88;;;16.90;99.90;;;;;;5093661;28;20035;-73
2022/10/17 08:46:20;;;;;;;16.33;11.02;;;17.00;98.30;;;;;;5092105;28;20509;-69
2022/10/17 08:48:48;;;;;;;16.30;10.65;;;17.10;99.60;;;;;;5107590;28;20055;-73
2022/10/17 08:51:27;;;;;;;16.33;10.73;;;17.20;98.80;;;;;;5113540;28;20565;-72
2022/10/17 08:54:01;;;;;;;15.10;10.95;;;17.30;99.90;;;;;;5113868;28;20050;-69
2022/10/17 08:56:32;;;;;;;14.85;10.52;;;17.40;98.40;;;;;;5113715;28;20012;-73
2022/10/17 08:58:58;;;;;;;14.37;11.37;;;17.50;98.10;;;;;;5113754;28;20024;-73
2022/10/17 09:01:57;;;;;;;18.08;11.23;;;17.50;97.60;;;;;;5112229;28;20262;-73
2022/10/17 09:04:53;;;;;;;15.65;10.90;;;17.60;97.70;;;;;;5113807;28;20073;-69
2022/10/17 09:08:02;;;;;;;15.88;12.60;;;17.70;97.00;;;;;;5113605;28;20031;-69
2022/10/17 09:11:04;;;;;;;18.45;12.50;;;17.80;98.90;;;;;;5109796;28;20501;-73
2022/10/17 09:13:40;;;;;;;17.70;10.45;;;18.00;98.60;;;;;;5113691;28;20030;-69
2022/10/17 09:16:18;;;;;;;13.73;10.93;;;18.00;93.30;;;;;;5112240;28;20020;-73
2022/10/17 09:18:55;;;;;;;17.10;10.52;;;18.10;91.70;;;;;;5101037;28;20031;-73
2022/10/17 09:21:26;;;;;;;19.52;11.55;;;18.20;91.10;;;;;;5096976;28;20024;-69
2022/10/17 09:23:57;;;;;;;15.93;10.70;;;18.20;90.50;;;;;;5096866;28;20469;-73
2022/10/17 09:26:25;;;;;;;17.35;9.88;;;18.30;92.10;;;;;;5096860;28;20027;-73
2022/10/17 09:28:54;;;;;;;22.58;12.40;;;18.40;87.30;;;;;;5111203;28;20020;-73
2022/10/17 09:31:33;;;;;;;21.23;10.90;;;18.50;86.00;;;;;;5115737;28;20499;-70
2022/10/17 09:34:02;;;;;;;18.20;10.73;;;18.50;88.00;;;;;;5115890;28;20377;-70
2022/10/17 09:36:36;;;;;;;16.75;10.60;;;18.60;90.50;;;;;;5109612;28;20040;-69
2022/10/17 09:39:08;;;;;;;16.63;10.05;;;18.70;85.40;;;;;;5096718;28;20031;-69
2022/10/17 09:41:44;;;;;;;14.75;9.48;;;18.80;85.10;;;;;;5096400;28;20024;-69
2022/10/17 09:44:17;;;;;;;13.40;9.95;;;18.80;81.30;;;;;;5097134;28;20511;-70
2022/10/17 09:46:56;;;;;;;13.50;9.43;;;18.90;83.90;;;;;;5096458;28;20408;-72
2022/10/17 09:49:33;;;;;;;17.73;9.98;;;19.00;81.30;;;;;;5107293;28;20407;-73
2022/10/17 09:52:02;;;;;;;19.67;10.60;;;19.00;81.50;;;;;;5116735;28;20023;-69
2022/10/17 09:54:49;;;;;;;15.52;9.43;;;19.10;79.90;;;;;;5116705;28;20023;-69
2022/10/17 09:57:16;;;;;;;13.73;9.75;;;19.20;79.00;;;;;;5115419;28;20119;-73
2022/10/17 09:59:44;;;;;;;13.88;9.52;;;19.30;76.30;;;;;;5116705;28;20089;-70
2022/10/17 10:02:12;;;;;;;15.48;9.38;;;19.30;75.60;;;;;;5098508;28;20101;-73
2022/10/17 10:04:52;;;;;;;10.05;8.90;;;19.40;75.90;;;;;;5096153;28;20110;-69
2022/10/17 10:07:19;;;;;;;12.90;7.97;;;19.50;74.70;;;;;;5096073;28;20504;-70
2022/10/17 10:09:47;;;;;;;14.75;9.70;;;19.50;73.00;;;;;;5094741;28;20477;-72
2022/10/17 10:12:34;;;;;;;13.05;8.57;;;19.60;72.80;;;;;;5097369;28;20102;-73
2022/10/17 10:15:00;;;;;;;12.25;8.60;;;19.70;74.40;;;;;;5116441;28;20020;-73
2022/10/17 10:17:40;;;;;;;10.90;7.72;;;19.70;72.90;;;;;;5116293;28;20430;-69
2022/10/17 10:20:29;;;;;;;13.55;8.25;;;19.80;71.50;;;;;;5114888;28;20035;-72
2022/10/17 10:23:05;;;;;;;10.07;7.07;;;19.90;71.40;;;;;;5116233;28;20073;-74
2022/10/17 10:25:30;;;;;;;10.40;7.75;;;19.90;68.30;;;;;;5116297;28;20165;-73
2022/10/17 10:27:56;;;;;;;9.63;7.90;;;20.00;71.00;;;;;;5107864;28;20074;-70
2022/10/17 10:30:26;;;;;;;9.10;7.70;;;20.00;70.10;;;;;;5094025;28;20073;-73
2022/10/17 10:32:52;;;;;;;8.77;6.93;;;20.10;70.30;;;;;;5114394;28;20080;-69
2022/10/17 10:35:22;;;;;;;12.70;7.35;;;20.10;69.10;;;;;;5115898;28;20463;-69
2022/10/17 10:37:55;;;;;;;11.15;8.40;;;20.20;68.30;;;;;;5115909;28;20023;-70
2022/10/17 10:40:36;;;;;;;8.68;6.93;;;20.10;67.30;;;;;;5108695;28;20655;-73
2022/10/17 10:43:02;;;;;;;11.52;7.43;;;20.10;68.20;;;;;;5095409;28;20024;-73
2022/10/17 10:45:39;;;;;;;9.63;6.82;;;20.10;68.50;;;;;;5095465;28;20024;-69
2022/10/17 10:48:23;;;;;;;10.63;7.80;;;20.20;67.30;;;;;;5095299;28;20020;-69
2022/10/17 10:50:54;;;;;;;10.60;7.38;;;20.20;68.30;;;;;;5095048;28;20421;-73
2022/10/17 10:53:41;;;;;;;12.70;6.97;;;20.20;68.50;;;;;;5095244;28;20022;-69
2022/10/17 10:56:15;;;;;;;9.23;7.82;;;20.30;68.70;;;;;;5104689;28;20051;-73
2022/10/17 10:59:13;;;;;;;8.85;6.82;;;20.40;68.80;;;;;;5115571;28;20024;-69
2022/10/17 11:01:45;;;;;;;8.63;7.47;;;20.40;69.50;;;;;;5113080;28;20064;-73
2022/10/17 11:04:28;;;;;;;9.25;6.72;;;20.40;66.50;;;;;;5115390;28;20030;-73
2022/10/17 11:07:15;;;;;;;12.15;7.13;;;20.50;68.30;;;;;;5115744;28;20027;-73
2022/10/17 11:09:58;;;;;;;8.50;7.22;;;20.50;66.70;;;;;;5115279;28;20508;-73
2022/10/17 11:12:49;;;;;;;10.18;6.55;;;20.50;67.20;;;;;;5115262;28;20027;-69
2022/10/17 11:15:24;;;;;;;8.02;7.00;;;20.50;67.00;;;;;;5113960;28;20413;-69
2022/10/17 11:18:01;;;;;;;13.57;7.97;;;20.60;67.50;;;;;;5115253;28;20027;-69
2022/10/17 11:20:42;;;;;;;10.35;7.55;;;20.60;67.00;;;;;;5115125;28;20061;-73
2022/10/17 11:23:20;;;;;;;8.98;7.43;;;20.60;67.20;;;;;;5115075;28;20390;-73
2022/10/17 11:25:49;;;;;;;8.50;6.68;;;20.70;67.80;;;;;;5115100;28;20029;-69
2022/10/17 11:28:20;;;;;;;8.15;6.60;;;20.80;66.60;;;;;;5104754;28;20028;-73
2022/10/17 11:30:56;;;;;;;7.20;6.13;;;20.70;65.00;;;;;;5094413;28;20453;-69
2022/10/17 11:33:47;;;;;;;13.05;6.97;;;20.80;67.20;;;;;;5113411;28;20024;-69
2022/10/17 11:36:14;;;;;;;9.32;7.50;;;20.80;66.20;;;;;;5114094;28;20047;-69
2022/10/17 11:39:13;;;;;;;10.18;7.07;;;20.80;65.80;;;;;;5101579;28;20023;-73
2022/10/17 11:41:45;;;;;;;9.68;7.03;;;20.90;66.20;;;;;;5093548;28;20031;-73
2022/10/17 11:44:35;;;;;;;11.50;7.70;;;20.90;66.10;;;;;;5094268;28;20434;-73
2022/10/17 11:47:23;;;;;;;9.75;7.25;;;21.00;65.70;;;;;;5094262;28;20077;-74
2022/10/17 11:49:52;;;;;;;8.63;5.85;;;20.90;63.80;;;;;;5095710;28;20024;-69
2022/10/17 11:52:47;;;;;;;8.48;6.65;;;21.00;62.80;;;;;;5114271;28;20107;-69
2022/10/17 11:55:23;;;;;;;12.18;6.63;;;21.10;64.00;;;;;;5114422;28;20027;-73
2022/10/17 11:57:54;;;;;;;6.50;5.88;;;21.10;64.30;;;;;;5114569;28;20072;-70
2022/10/17 12:00:55;;;;;;;7.13;5.90;;;21.20;62.70;;;;;;5114364;28;20423;-69
2022/10/17 12:03:29;;;;;;;8.77;5.78;;;21.20;61.60;;;;;;5105470;27;20058;-69
2022/10/17 12:06:07;;;;;;;12.77;6.78;;;21.20;61.60;;;;;;5112970;28;20469;-69
2022/10/17 12:08:50;;;;;;;7.57;6.35;;;21.20;61.20;;;;;;5114365;28;20358;-69
2022/10/17 12:11:54;;;;;;;7.80;6.53;;;21.20;61.10;;;;;;5114207;28;20393;-73
2022/10/17 12:14:35;;;;;;;8.48;6.25;;;21.20;62.10;;;;;;5114222;28;20536;-74
2022/10/17 12:17:01;;;;;;;7.63;5.97;;;21.30;62.40;;;;;;5112937;28;20110;-69
2022/10/17 12:19:35;;;;;;;6.78;5.47;;;21.30;61.80;;;;;;5113978;28;20019;-69
2022/10/17 12:22:20;;;;;;;9.50;6.85;;;21.30;61.70;;;;;;5114145;28;20028;-73
2022/10/17 12:25:01;;;;;;;7.80;5.50;;;21.40;61.60;;;;;;5113984;28;20501;-73
2022/10/17 12:27:48;;;;;;;9.35;5.63;;;21.30;61.40;;;;;;5110255;28;20026;-69
2022/10/17 12:30:22;;;;;;;7.57;6.03;;;21.40;60.90;;;;;;5093443;28;20036;-69
2022/10/17 12:33:03;;;;;;;7.88;6.05;;;21.40;61.10;;;;;;5093534;28;20027;-69
2022/10/17 12:35:30;;;;;;;8.38;5.50;;;21.50;61.60;;;;;;5093422;28;20055;-69
2022/10/17 12:38:20;;;;;;;9.70;6.10;;;21.50;61.90;;;;;;5093614;28;20028;-73
2022/10/17 12:40:48;;;;;;;9.38;6.45;;;21.50;62.20;;;;;;5083942;28;20036;-73
2022/10/17 12:43:14;;;;;;;9.60;6.07;;;21.50;62.10;;;;;;5093571;28;20027;-73
2022/10/17 12:45:59;;;;;;;7.63;6.22;;;21.60;62.60;;;;;;5093376;28;20024;-73
2022/10/17 12:49:11;;;;;;;8.15;5.90;;;21.60;61.50;;;;;;5093603;28;20030;-73
2022/10/17 12:52:05;;;;;;;8.48;6.28;;;21.60;60.10;;;;;;5087897;28;20068;-70
2022/10/17 12:54:38;;;;;;;10.15;6.05;;;21.60;61.50;;;;;;5095809;28;20177;-73
2022/10/17 12:57:31;;;;;;;9.88;6.63;;;21.60;60.70;;;;;;5097506;28;20024;-69
2022/10/17 13:00:00;;;;;;;8.85;6.60;;;21.60;61.20;;;;;;5096013;28;20493;-73